In Rescue
 
Open Full Screen Window  High Contrast Mode
Wind Gusting 00 knots
09
September 21, 2019 8:00 AM CDT
Weather Information
Wind Direction
  170 °
Wind Speed
  09 kt (10 mph)
Wind Gust
  00 kt (0 mph)
Altimeter
29.84 in
Visibility
10 SM
Temperature
21° C
70° F
Dewpoint
21° C
70° F
Humidity
100%
1hr Rain Fall
00.00 in.
24hr Rain Fall
00.16 in.
Sky Condition
Overcast @ 1,500 ft
MVFR

METAR K21D 211300Z AUTO 17009KT 10SM OVC015 21/21 A2984 RMK AO2 LTG DSNT W

FAA Disclaimer: The data displayed is for advisory purposes only and is not to be used for flight planning or operations.